Time;durP1;ratioP1;P1;durP2;ratioP2;P2;SDS_P1;SDS_P2;PMS_P1;PMS_P2;Temp;Humidity;BMP_temperature;BMP_pressure;BME280_temperature;BME280_humidity;BME280_pressure;Samples;Min_cycle;Max_cycle;Signal;HPM_P1;HPM_P2
2022/05/07 00:00:43;;;;;;;0.60;0.10;;;14.80;99.90;;;;;;5041961;28;20450;-76
2022/05/07 00:03:11;;;;;;;0.60;0.10;;;15.40;99.90;;;;;;5049670;28;20496;-76
2022/05/07 00:05:39;;;;;;;0.60;0.20;;;15.40;99.90;;;;;;5049811;28;21261;-75
2022/05/07 00:08:07;;;;;;;0.60;0.10;;;15.40;99.90;;;;;;5045068;28;20446;-75
2022/05/07 00:10:36;;;;;;;0.60;0.10;;;15.30;99.90;;;;;;5038941;28;20455;-74
2022/05/07 00:13:04;;;;;;;0.60;0.10;;;15.30;99.90;;;;;;5045308;28;20512;-73
2022/05/07 00:15:32;;;;;;;0.60;0.10;;;15.20;99.90;;;;;;5049287;28;20450;-73
2022/05/07 00:18:05;;;;;;;0.60;0.10;;;15.20;99.90;;;;;;5049291;28;20769;-74
2022/05/07 00:20:34;;;;;;;0.60;0.10;;;15.20;99.90;;;;;;5043113;28;20474;-73
2022/05/07 00:23:03;;;;;;;0.60;0.10;;;15.10;99.90;;;;;;5044541;28;20512;-74
2022/05/07 00:25:32;;;;;;;0.60;0.13;;;15.10;99.90;;;;;;5049442;28;20446;-74
2022/05/07 00:28:00;;;;;;;0.60;0.10;;;15.10;99.90;;;;;;5029563;28;20447;-74
2022/05/07 00:30:28;;;;;;;0.60;0.13;;;15.10;99.90;;;;;;5029765;28;20471;-74
2022/05/07 00:32:55;;;;;;;0.60;0.17;;;15.10;99.90;;;;;;5038104;28;21162;-74
2022/05/07 00:35:24;;;;;;;0.60;0.10;;;15.10;99.90;;;;;;5048909;28;20442;-74
2022/05/07 00:37:52;;;;;;;0.60;0.10;;;15.10;99.90;;;;;;5041593;28;20467;-74
2022/05/07 00:40:20;;;;;;;0.60;0.20;;;15.10;99.90;;;;;;5038269;28;20455;-73
2022/05/07 00:42:48;;;;;;;0.60;0.10;;;15.10;99.90;;;;;;5029445;28;20989;-74
2022/05/07 00:45:16;;;;;;;0.60;0.10;;;15.10;99.90;;;;;;5039535;28;20439;-75
2022/05/07 00:47:45;;;;;;;0.60;0.20;;;15.10;99.90;;;;;;5050650;28;20442;-75
2022/05/07 00:53:01;;;;;;;0.60;0.20;;;15.00;99.90;;;;;;5031017;28;20974;-74
2022/05/07 00:55:30;;;;;;;0.70;0.50;;;14.90;99.90;;;;;;5031887;28;20451;-74
2022/05/07 00:57:58;;;;;;;0.60;0.20;;;14.90;99.90;;;;;;5041324;28;20442;-74
2022/05/07 01:00:26;;;;;;;0.60;0.10;;;14.90;99.90;;;;;;5041103;28;20911;-74
2022/05/07 01:02:54;;;;;;;0.60;0.10;;;14.80;99.90;;;;;;5039264;28;20482;-74
2022/05/07 01:05:22;;;;;;;0.60;0.20;;;14.70;99.90;;;;;;5036946;28;20535;-74
2022/05/07 01:07:51;;;;;;;0.60;0.10;;;14.70;99.90;;;;;;5031897;28;20462;-75
2022/05/07 01:10:21;;;;;;;0.97;0.30;;;14.70;99.90;;;;;;5033027;28;20447;-74
2022/05/07 01:12:50;;;;;;;0.60;0.10;;;;;;;;;;5033174;28;20467;-74
2022/05/07 01:15:17;;;;;;;0.60;0.10;;;14.50;99.90;;;;;;5035520;28;20439;-73
2022/05/07 01:17:45;;;;;;;5.47;5.10;;;14.50;99.90;;;;;;5035774;28;20443;-74
2022/05/07 01:20:14;;;;;;;2.43;2.23;;;14.40;99.90;;;;;;5034301;28;20534;-74
2022/05/07 01:22:45;;;;;;;0.60;0.20;;;14.40;99.90;;;;;;5032986;28;20514;-74
2022/05/07 01:25:12;;;;;;;0.60;0.10;;;14.30;99.90;;;;;;5036488;28;20447;-73
2022/05/07 01:27:40;;;;;;;0.60;0.10;;;;;;;;;;5045086;28;20563;-73
2022/05/07 01:30:09;;;;;;;2.00;1.90;;;14.10;99.90;;;;;;5034355;28;20451;-73
2022/05/07 01:32:37;;;;;;;0.60;0.10;;;14.20;99.90;;;;;;5033831;28;20471;-74
2022/05/07 01:35:06;;;;;;;0.60;0.10;;;14.20;99.90;;;;;;5033510;28;20447;-73
2022/05/07 01:37:33;;;;;;;0.60;0.10;;;14.20;99.90;;;;;;5032534;28;20443;-74
2022/05/07 01:40:03;;;;;;;0.60;0.10;;;14.20;99.90;;;;;;5032069;28;20455;-75
2022/05/07 01:42:31;;;;;;;0.60;0.20;;;14.10;99.90;;;;;;5033318;28;20475;-75
2022/05/07 01:44:58;;;;;;;0.70;0.37;;;14.10;99.90;;;;;;5032752;28;21060;-75
2022/05/07 01:50:12;;;;;;;0.60;0.10;;;14.00;99.90;;;;;;5033239;28;20443;-76
2022/05/07 01:52:40;;;;;;;0.60;0.10;;;13.90;99.90;;;;;;5033084;28;20467;-76
2022/05/07 01:55:09;;;;;;;0.60;0.10;;;13.90;99.90;;;;;;5030003;28;20934;-75
2022/05/07 01:57:37;;;;;;;0.60;0.10;;;13.90;99.90;;;;;;5043703;28;21148;-76
2022/05/07 02:00:06;;;;;;;0.60;0.10;;;13.90;99.90;;;;;;5053227;28;20443;-76
2022/05/07 02:02:34;;;;;;;0.60;0.10;;;13.90;99.90;;;;;;5052499;28;20482;-75
2022/05/07 02:05:02;;;;;;;0.60;0.13;;;14.00;99.90;;;;;;5053157;28;20465;-76
2022/05/07 02:07:30;;;;;;;0.60;0.10;;;14.00;99.90;;;;;;5052216;28;20453;-75
2022/05/07 02:09:58;;;;;;;0.60;0.20;;;14.00;99.90;;;;;;5038944;28;20952;-75
2022/05/07 02:12:27;;;;;;;0.60;0.10;;;14.00;99.90;;;;;;5031736;28;20506;-76
2022/05/07 02:14:55;;;;;;;0.60;0.10;;;14.00;99.90;;;;;;5032612;28;20447;-76
2022/05/07 02:17:23;;;;;;;0.60;0.10;;;14.00;99.90;;;;;;5031682;28;20444;-74
2022/05/07 02:19:51;;;;;;;0.60;0.10;;;14.00;99.90;;;;;;5032288;28;20933;-72
2022/05/07 02:22:19;;;;;;;0.60;0.10;;;14.00;99.90;;;;;;5032332;28;20551;-73
2022/05/07 02:24:47;;;;;;;0.60;0.10;;;14.00;99.90;;;;;;5032179;28;20578;-73
2022/05/07 02:27:15;;;;;;;163.77;104.67;;;14.00;99.90;;;;;;5046260;28;20549;-74
2022/05/07 02:29:44;;;;;;;0.60;0.10;;;14.00;99.90;;;;;;5053670;28;20465;-74
2022/05/07 02:32:13;;;;;;;0.60;0.10;;;13.90;99.90;;;;;;5049201;28;20589;-77
2022/05/07 02:34:42;;;;;;;0.60;0.10;;;13.90;99.90;;;;;;5029209;28;20441;-78
2022/05/07 02:37:10;;;;;;;0.60;0.10;;;13.80;99.90;;;;;;5034532;28;20459;-77
2022/05/07 02:39:38;;;;;;;0.60;0.10;;;;;;;;;;5041448;28;20450;-77
2022/05/07 02:44:53;;;;;;;0.60;0.10;;;13.80;99.90;;;;;;5032773;28;20503;-78
2022/05/07 02:47:21;;;;;;;0.60;0.10;;;13.70;99.90;;;;;;5038765;28;20447;-77
2022/05/07 02:49:49;;;;;;;0.60;0.10;;;13.70;99.90;;;;;;5032942;28;20528;-78
2022/05/07 02:52:17;;;;;;;0.60;0.20;;;13.70;99.90;;;;;;5032990;28;20508;-78
2022/05/07 02:54:45;;;;;;;0.60;0.10;;;13.70;99.90;;;;;;5033276;28;20431;-77
2022/05/07 02:57:13;;;;;;;0.60;0.20;;;13.60;99.90;;;;;;5032822;28;20447;-77
2022/05/07 02:59:41;;;;;;;0.60;0.10;;;13.60;99.90;;;;;;5032944;28;20926;-77
2022/05/07 03:02:11;;;;;;;0.60;0.10;;;13.50;99.90;;;;;;5032956;28;20470;-77
2022/05/07 03:04:39;;;;;;;0.60;0.10;;;13.50;99.90;;;;;;5035696;28;20493;-78
2022/05/07 03:07:07;;;;;;;0.60;0.10;;;13.50;99.90;;;;;;5042003;28;20467;-77
2022/05/07 03:09:35;;;;;;;0.60;0.10;;;13.50;99.90;;;;;;5031258;28;20446;-74
2022/05/07 03:12:03;;;;;;;0.60;0.10;;;13.50;99.90;;;;;;5029453;28;20489;-75
2022/05/07 03:14:32;;;;;;;0.60;0.10;;;13.50;99.90;;;;;;5030869;28;20465;-77
2022/05/07 03:17:00;;;;;;;0.60;0.10;;;13.50;99.90;;;;;;5032485;28;20474;-77
2022/05/07 03:19:29;;;;;;;0.60;0.10;;;13.40;99.90;;;;;;5032656;28;20451;-76
2022/05/07 03:21:57;;;;;;;0.60;0.20;;;13.40;99.90;;;;;;5033140;28;20634;-78
2022/05/07 03:24:24;;;;;;;0.60;0.20;;;13.40;99.90;;;;;;5032685;28;20997;-77
2022/05/07 03:26:52;;;;;;;0.60;0.10;;;13.40;99.90;;;;;;5044007;28;20843;-77
2022/05/07 03:29:20;;;;;;;0.60;0.10;;;13.40;99.90;;;;;;5052722;28;20446;-77
2022/05/07 03:31:49;;;;;;;0.60;0.10;;;13.30;99.90;;;;;;5047327;28;20523;-78
2022/05/07 03:34:17;;;;;;;0.60;0.10;;;13.30;99.90;;;;;;5034722;28;20450;-78
2022/05/07 03:36:46;;;;;;;0.60;0.10;;;13.30;1.00;;;;;;5033472;28;20552;-76
2022/05/07 03:39:14;;;;;;;0.60;0.10;;;13.30;1.00;;;;;;5031372;28;20448;-76
2022/05/07 03:41:42;;;;;;;0.60;0.10;;;13.20;1.00;;;;;;5031562;28;21140;-76
2022/05/07 03:44:10;;;;;;;0.60;0.10;;;13.20;1.00;;;;;;5030901;28;20490;-76
2022/05/07 03:46:38;;;;;;;0.60;0.10;;;11.90;1.00;;;;;;5032503;28;20439;-77
2022/05/07 03:49:05;;;;;;;0.60;0.10;;;13.20;1.00;;;;;;5032783;28;20451;-77
2022/05/07 03:53:29;;;;;;;0.60;0.10;;;13.20;1.00;;;;;;5032539;28;20473;-77
2022/05/07 03:54:22;;;;;;;0.60;0.10;;;13.10;1.00;;;;;;5030573;28;20447;-77
2022/05/07 03:56:50;;;;;;;0.60;0.10;;;13.10;1.00;;;;;;5030531;28;20450;-76
2022/05/07 03:59:19;;;;;;;0.60;0.10;;;13.10;1.00;;;;;;5031143;28;20443;-76
2022/05/07 04:01:46;;;;;;;0.60;0.10;;;13.00;1.00;;;;;;5032205;28;20482;-76
2022/05/07 04:04:14;;;;;;;0.60;0.10;;;13.00;1.00;;;;;;5033014;28;20541;-75
2022/05/07 04:06:42;;;;;;;0.60;0.10;;;13.00;1.00;;;;;;5029489;28;20534;-76
2022/05/07 04:09:10;;;;;;;0.60;0.10;;;13.00;1.00;;;;;;5029547;28;20451;-76
2022/05/07 04:11:39;;;;;;;0.60;0.10;;;13.00;1.00;;;;;;5030306;28;20965;-76
2022/05/07 04:14:07;;;;;;;0.60;0.10;;;13.00;1.00;;;;;;5030013;28;20446;-76
2022/05/07 04:16:35;;;;;;;0.60;0.10;;;12.90;1.00;;;;;;5030234;28;20442;-76
2022/05/07 04:19:11;;;;;;;0.70;0.30;;;12.90;1.00;;;;;;5030142;28;20658;-76
2022/05/07 04:21:39;;;;;;;0.60;0.10;;;12.90;1.00;;;;;;5029778;28;20554;-77
2022/05/07 04:24:07;;;;;;;0.60;0.10;;;12.90;1.00;;;;;;5029807;28;20475;-77
2022/05/07 04:26:35;;;;;;;0.60;0.10;;;12.90;1.00;;;;;;5038484;28;20447;-74
2022/05/07 04:29:04;;;;;;;0.60;0.20;;;;;;;;;;5050046;28;20438;-75
2022/05/07 04:31:33;;;;;;;0.60;0.10;;;;;;;;;;5040866;28;21018;-75
2022/05/07 04:34:00;;;;;;;0.60;0.10;;;12.90;1.00;;;;;;5043940;28;20450;-75
2022/05/07 04:36:28;;;;;;;0.60;0.10;;;12.90;1.00;;;;;;5042569;28;20444;-76
2022/05/07 04:38:56;;;;;;;0.60;0.10;;;12.90;1.00;;;;;;5030920;28;20454;-75
2022/05/07 04:41:24;;;;;;;0.60;0.10;;;12.90;1.00;;;;;;5030198;28;20443;-75
2022/05/07 04:43:52;;;;;;;0.60;0.10;;;12.90;1.00;;;;;;5029298;28;20960;-75
2022/05/07 04:46:21;;;;;;;0.60;0.10;;;12.90;1.00;;;;;;5028909;28;20554;-76
2022/05/07 04:48:49;;;;;;;0.60;0.10;;;13.00;1.00;;;;;;5029797;28;20954;-75
2022/05/07 04:51:16;;;;;;;0.60;0.10;;;13.00;1.00;;;;;;5029956;28;20788;-74
2022/05/07 04:54:05;;;;;;;0.60;0.10;;;13.00;1.00;;;;;;5030267;28;20451;-73
2022/05/07 04:56:32;;;;;;;0.60;0.10;;;13.10;1.00;;;;;;5029954;28;20447;-73
2022/05/07 04:59:00;;;;;;;0.60;0.10;;;13.10;1.00;;;;;;5029808;28;20452;-74
2022/05/07 05:01:29;;;;;;;0.60;0.10;;;15.70;1.00;;;;;;5029632;28;20447;-73
2022/05/07 05:03:58;;;;;;;0.60;0.10;;;13.20;1.00;;;;;;5028397;28;20511;-75
2022/05/07 05:06:26;;;;;;;0.60;0.10;;;;;;;;;;5034452;28;20473;-75
2022/05/07 05:08:54;;;;;;;0.60;0.20;;;13.30;1.00;;;;;;5043378;28;20434;-77
2022/05/07 05:11:22;;;;;;;0.60;0.10;;;13.40;1.00;;;;;;5048616;28;20457;-76
2022/05/07 05:13:50;;;;;;;0.60;0.20;;;13.40;1.00;;;;;;5034655;28;20447;-76
2022/05/07 05:16:18;;;;;;;0.60;0.10;;;13.40;1.00;;;;;;5029335;28;20447;-75
2022/05/07 05:18:47;;;;;;;0.60;0.10;;;13.50;1.00;;;;;;5029582;28;20479;-75
2022/05/07 05:21:15;;;;;;;0.60;0.10;;;13.60;1.00;;;;;;5029457;28;20443;-75
2022/05/07 05:23:46;;;;;;;0.60;0.10;;;13.60;1.00;;;;;;5029564;28;21037;-75
2022/05/07 05:26:14;;;;;;;0.60;0.20;;;13.60;1.00;;;;;;5035644;28;20519;-75
2022/05/07 05:28:43;;;;;;;0.60;0.10;;;13.70;1.00;;;;;;5048387;28;20521;-75
2022/05/07 05:31:11;;;;;;;0.60;0.10;;;;;;;;;;5029109;28;20505;-77
2022/05/07 05:33:39;;;;;;;0.60;0.10;;;13.80;1.00;;;;;;5029515;28;20439;-77
2022/05/07 05:36:08;;;;;;;0.60;0.10;;;13.80;1.00;;;;;;5030407;28;20439;-77
2022/05/07 05:38:36;;;;;;;0.60;0.10;;;13.90;1.00;;;;;;5029712;28;20459;-77
2022/05/07 05:41:04;;;;;;;0.60;0.10;;;14.00;1.00;;;;;;5029754;28;20439;-77
2022/05/07 05:43:32;;;;;;;0.60;0.10;;;14.00;1.00;;;;;;5029617;28;20467;-77
2022/05/07 05:46:00;;;;;;;0.60;0.10;;;14.10;99.90;;;;;;5028914;28;20843;-77
2022/05/07 05:48:29;;;;;;;0.60;0.10;;;14.20;99.90;;;;;;5031674;28;20454;-77
2022/05/07 05:50:57;;;;;;;0.60;0.10;;;14.20;99.90;;;;;;5034365;28;20446;-77
2022/05/07 05:53:26;;;;;;;0.60;0.13;;;14.30;99.90;;;;;;5034323;28;20459;-77
2022/05/07 05:55:54;;;;;;;0.60;0.13;;;;;;;;;;5034178;28;20454;-77
2022/05/07 05:58:22;;;;;;;0.60;0.10;;;14.50;99.90;;;;;;5032650;28;20977;-76
2022/05/07 06:00:52;;;;;;;0.60;0.10;;;14.50;99.90;;;;;;5033166;28;20453;-75
2022/05/07 06:03:20;;;;;;;0.60;0.10;;;14.50;99.90;;;;;;5032601;28;20467;-75
2022/05/07 06:05:49;;;;;;;0.60;0.10;;;14.60;99.90;;;;;;5033112;28;20486;-76
2022/05/07 06:08:17;;;;;;;0.60;0.10;;;14.70;99.90;;;;;;5033218;28;20543;-75
2022/05/07 06:10:46;;;;;;;0.60;0.10;;;14.70;99.90;;;;;;5032972;28;20447;-74
2022/05/07 06:13:14;;;;;;;0.60;0.10;;;14.80;99.90;;;;;;5032774;28;20468;-75
2022/05/07 06:15:42;;;;;;;0.60;0.10;;;14.80;99.90;;;;;;5032549;28;20449;-73
2022/05/07 06:18:10;;;;;;;0.60;0.10;;;14.90;99.90;;;;;;5033453;28;20444;-74
2022/05/07 06:20:38;;;;;;;0.60;0.10;;;14.90;99.90;;;;;;5035910;28;20920;-73
2022/05/07 06:23:06;;;;;;;0.60;0.10;;;15.00;99.90;;;;;;5034690;28;20483;-75
2022/05/07 06:28:22;;;;;;;0.60;0.10;;;15.00;99.90;;;;;;5053339;28;20450;-74
2022/05/07 06:30:50;;;;;;;0.60;0.10;;;15.10;99.90;;;;;;5055476;28;20474;-74
2022/05/07 06:33:18;;;;;;;0.60;0.10;;;15.20;99.90;;;;;;5055298;28;20462;-75
2022/05/07 06:35:46;;;;;;;0.60;0.10;;;15.20;99.90;;;;;;5053348;28;20438;-74
2022/05/07 06:38:15;;;;;;;0.60;0.10;;;15.30;99.90;;;;;;5032869;28;20447;-75
2022/05/07 06:40:43;;;;;;;2.87;2.67;;;15.40;99.90;;;;;;5036092;28;20459;-73
2022/05/07 06:43:11;;;;;;;0.60;0.10;;;15.40;99.90;;;;;;5041853;28;20543;-74
2022/05/07 06:45:41;;;;;;;0.60;0.10;;;15.50;99.90;;;;;;5035478;28;20478;-72
2022/05/07 06:48:11;;;;;;;0.60;0.10;;;15.60;99.90;;;;;;5039752;28;20547;-73
2022/05/07 06:50:40;;;;;;;0.60;0.20;;;15.60;99.90;;;;;;5043731;28;20449;-73
2022/05/07 06:53:08;;;;;;;0.60;0.10;;;15.70;99.90;;;;;;5043816;28;20558;-73
2022/05/07 06:55:54;;;;;;;0.60;0.10;;;15.80;99.90;;;;;;5032510;28;20431;-73
2022/05/07 06:58:23;;;;;;;0.60;0.10;;;15.90;99.90;;;;;;5032900;28;20469;-74
2022/05/07 07:00:59;;;;;;;0.60;0.10;;;16.00;99.90;;;;;;5032843;28;20504;-73
2022/05/07 07:03:27;;;;;;;0.60;0.20;;;16.00;99.90;;;;;;5031834;28;20469;-74
2022/05/07 07:05:57;;;;;;;0.60;0.10;;;16.10;99.90;;;;;;5031692;28;20511;-75
2022/05/07 07:08:29;;;;;;;0.60;0.10;;;16.10;99.90;;;;;;5032312;28;20436;-74
2022/05/07 07:10:56;;;;;;;0.60;0.10;;;16.20;99.90;;;;;;5031929;28;20456;-75
2022/05/07 07:13:24;;;;;;;0.60;0.20;;;16.30;99.90;;;;;;5032751;28;20467;-75
2022/05/07 07:15:52;;;;;;;0.60;0.10;;;16.30;99.90;;;;;;5032195;28;20783;-74
2022/05/07 07:18:22;;;;;;;0.60;0.10;;;16.40;99.90;;;;;;5031306;28;20997;-74
2022/05/07 07:20:50;;;;;;;0.60;0.10;;;16.40;99.90;;;;;;5032057;28;20525;-75
2022/05/07 07:23:18;;;;;;;0.60;0.10;;;16.50;99.90;;;;;;5031769;28;20524;-70
2022/05/07 07:25:46;;;;;;;0.60;0.10;;;17.10;99.90;;;;;;5033491;28;20572;-73
2022/05/07 07:28:14;;;;;;;0.60;0.10;;;16.70;99.90;;;;;;5051282;28;20541;-71
2022/05/07 07:30:42;;;;;;;0.60;0.10;;;16.90;99.90;;;;;;5051419;28;20452;-70
2022/05/07 07:33:14;;;;;;;0.60;0.10;;;17.00;99.90;;;;;;5043324;28;20462;-72
2022/05/07 07:35:43;;;;;;;0.60;0.10;;;17.20;99.90;;;;;;5040461;28;20435;-73
2022/05/07 07:38:11;;;;;;;0.60;0.10;;;17.30;99.90;;;;;;5040561;28;20454;-71
2022/05/07 07:40:40;;;;;;;0.60;0.20;;;17.50;99.90;;;;;;5043568;28;20452;-71
2022/05/07 07:43:10;;;;;;;0.60;0.10;;;17.70;99.90;;;;;;5030926;28;20460;-72
2022/05/07 07:48:23;;;;;;;0.60;0.10;;;17.90;99.90;;;;;;5041087;28;20461;-73
2022/05/07 07:50:53;;;;;;;0.60;0.20;;;18.00;99.90;;;;;;5040606;28;20446;-71
2022/05/07 07:53:22;;;;;;;0.60;0.20;;;18.10;99.90;;;;;;5046582;28;20460;-72
2022/05/07 07:55:50;;;;;;;0.60;0.20;;;18.20;99.90;;;;;;5041166;28;20444;-72
2022/05/07 07:58:19;;;;;;;0.60;0.20;;;18.30;99.90;;;;;;5031680;28;20451;-74
2022/05/07 08:00:46;;;;;;;0.60;0.20;;;18.30;99.90;;;;;;5033631;28;20454;-74
2022/05/07 08:03:15;;;;;;;0.60;0.10;;;18.40;99.90;;;;;;5033723;28;20787;-72
2022/05/07 08:05:45;;;;;;;0.60;0.10;;;18.40;99.90;;;;;;5032960;28;20490;-72
2022/05/07 08:13:47;;;;;;;0.60;0.10;;;18.70;99.90;;;;;;5027123;28;20645;-71
2022/05/07 08:16:17;;;;;;;0.60;0.10;;;18.80;99.90;;;;;;5038090;28;20807;-71
2022/05/07 08:18:46;;;;;;;0.60;0.13;;;18.90;99.90;;;;;;5050191;28;20504;-72
2022/05/07 08:21:14;;;;;;;0.60;0.10;;;19.00;99.90;;;;;;5050472;28;20893;-69
2022/05/07 08:23:43;;;;;;;0.60;0.10;;;19.00;99.90;;;;;;5050335;28;20454;-71
2022/05/07 08:26:11;;;;;;;0.60;0.10;;;19.10;99.90;;;;;;5048748;28;20474;-70
2022/05/07 08:28:40;;;;;;;0.60;0.20;;;19.20;99.90;;;;;;5051202;28;20440;-71
2022/05/07 08:31:10;;;;;;;0.60;0.10;;;19.20;99.90;;;;;;5030550;28;20456;-70
2022/05/07 08:33:40;;;;;;;0.60;0.13;;;19.20;99.90;;;;;;5030786;28;20460;-72
2022/05/07 08:36:09;;;;;;;0.60;0.10;;;19.20;99.90;;;;;;5031221;28;20550;-72
2022/05/07 08:38:37;;;;;;;0.60;0.20;;;19.20;99.90;;;;;;5030686;28;20444;-70
2022/05/07 08:41:06;;;;;;;0.60;0.20;;;19.40;99.90;;;;;;5031376;28;20440;-71
2022/05/07 08:43:36;;;;;;;0.60;0.10;;;19.50;99.90;;;;;;5035289;28;21003;-71
2022/05/07 08:46:10;;;;;;;0.60;0.10;;;19.60;99.90;;;;;;5044585;28;20486;-70
2022/05/07 08:48:40;;;;;;;0.60;0.10;;;19.70;99.90;;;;;;5045383;28;20457;-71
2022/05/07 08:51:09;;;;;;;0.60;0.10;;;19.70;99.90;;;;;;5039743;28;20950;-72
2022/05/07 08:53:38;;;;;;;0.60;0.20;;;19.80;99.90;;;;;;5037348;28;20480;-70
2022/05/07 08:56:08;;;;;;;0.60;0.10;;;20.00;99.90;;;;;;5040303;28;20440;-72
2022/05/07 08:58:35;;;;;;;0.63;0.13;;;20.10;99.90;;;;;;5031097;28;20466;-70
2022/05/07 09:01:05;;;;;;;0.70;0.10;;;20.10;99.90;;;;;;5036959;28;20451;-71
2022/05/07 09:03:41;;;;;;;0.70;0.13;;;20.20;99.90;;;;;;5048969;28;20975;-70
2022/05/07 09:06:17;;;;;;;0.70;0.10;;;20.30;99.90;;;;;;5041259;28;20480;-70
2022/05/07 09:08:46;;;;;;;32.90;30.40;;;20.40;99.90;;;;;;5035058;28;20923;-73
2022/05/07 09:11:17;;;;;;;0.70;0.10;;;20.30;99.90;;;;;;5043998;28;20466;-71
2022/05/07 09:13:46;;;;;;;0.70;0.10;;;20.30;99.90;;;;;;5042730;28;20451;-69
2022/05/07 09:16:14;;;;;;;0.70;0.10;;;20.30;99.90;;;;;;5032510;28;20468;-71
2022/05/07 09:18:57;;;;;;;0.70;0.10;;;20.40;99.90;;;;;;5044880;28;20443;-73
2022/05/07 09:21:32;;;;;;;0.60;0.20;;;20.50;99.90;;;;;;5050365;28;20474;-72
2022/05/07 09:24:05;;;;;;;0.70;0.20;;;20.50;99.90;;;;;;5034364;28;20454;-73
2022/05/07 09:26:39;;;;;;;0.70;0.17;;;20.50;99.90;;;;;;5042234;28;20986;-72
2022/05/07 09:29:10;;;;;;;0.70;0.20;;;20.70;99.90;;;;;;5054888;28;20448;-73
2022/05/07 09:31:41;;;;;;;0.70;0.10;;;20.90;99.90;;;;;;5033567;28;20470;-77
2022/05/07 09:37:00;;;;;;;0.77;0.47;;;20.90;99.90;;;;;;5134765;23;20492;-73
2022/05/07 09:39:34;;;;;;;0.70;0.10;;;20.90;99.90;;;;;;4996980;28;20463;-74
2022/05/07 09:42:07;;;;;;;0.70;0.10;;;20.90;99.90;;;;;;4993547;28;20445;-76
2022/05/07 09:44:35;;;;;;;0.70;0.10;;;20.90;99.90;;;;;;5003256;28;21028;-75
2022/05/07 09:47:05;;;;;;;0.70;0.10;;;21.00;99.90;;;;;;5003484;28;20491;-73
2022/05/07 09:49:35;;;;;;;0.70;0.10;;;21.10;99.90;;;;;;5015639;28;20451;-77
2022/05/07 09:52:04;;;;;;;0.70;0.10;;;21.10;99.90;;;;;;5019942;28;20833;-78
2022/05/07 09:57:33;;;;;;;0.70;0.10;;;21.20;99.90;;;;;;5005512;28;20466;-78
2022/05/07 10:00:07;;;;;;;0.70;0.20;;;21.20;99.90;;;;;;5004079;28;20547;-76
2022/05/07 10:02:57;;;;;;;0.70;0.20;;;21.20;99.90;;;;;;5022167;28;20440;-79
2022/05/07 10:05:59;;;;;;;0.70;0.20;;;21.20;99.90;;;;;;5020537;28;20547;-78
2022/05/07 10:08:42;;;;;;;0.70;0.10;;;21.30;99.90;;;;;;4974747;28;20838;-71
2022/05/07 10:11:13;;;;;;;0.70;0.20;;;21.30;99.90;;;;;;5007089;28;20436;-75
2022/05/07 10:13:52;;;;;;;0.70;0.10;;;21.40;99.90;;;;;;5002805;28;20471;-71
2022/05/07 10:16:22;;;;;;;0.70;0.10;;;21.60;99.90;;;;;;4997746;28;20454;-74
2022/05/07 10:18:51;;;;;;;0.70;0.20;;;21.60;99.90;;;;;;4994583;28;20444;-73
2022/05/07 10:21:19;;;;;;;0.70;0.10;;;21.70;99.90;;;;;;4998703;28;20516;-78
2022/05/07 10:23:52;;;;;;;0.70;0.20;;;21.70;99.90;;;;;;5000907;28;20445;-79
2022/05/07 10:26:22;;;;;;;0.70;0.20;;;;;;;;;;5000908;28;20971;-77
2022/05/07 10:28:52;;;;;;;0.70;0.20;;;21.80;99.90;;;;;;4999206;28;20451;-77
2022/05/07 10:31:22;;;;;;;0.70;0.20;;;21.80;99.90;;;;;;4997605;28;20985;-73
2022/05/07 10:33:52;;;;;;;0.70;0.20;;;21.80;99.90;;;;;;4996444;28;20447;-74
2022/05/07 10:36:20;;;;;;;0.70;0.10;;;22.00;99.90;;;;;;4997302;28;20448;-72
2022/05/07 10:38:50;;;;;;;0.70;0.20;;;21.90;99.90;;;;;;4997564;28;20450;-75
2022/05/07 10:41:24;;;;;;;0.70;0.20;;;22.00;99.90;;;;;;5006403;28;20514;-71
2022/05/07 10:44:06;;;;;;;0.70;0.20;;;22.10;99.90;;;;;;5001068;28;20467;-73
2022/05/07 10:46:39;;;;;;;0.70;0.20;;;22.20;99.90;;;;;;4994348;28;20937;-71
2022/05/07 10:49:07;;;;;;;0.70;0.20;;;22.30;99.90;;;;;;4993599;28;20451;-72
2022/05/07 10:51:50;;;;;;;0.70;0.10;;;22.20;99.90;;;;;;5000403;28;20475;-74
2022/05/07 10:54:21;;;;;;;0.70;0.10;;;22.30;99.90;;;;;;4995077;28;20440;-73
2022/05/07 10:56:51;;;;;;;0.70;0.20;;;22.40;99.90;;;;;;4992684;28;20467;-73
2022/05/07 10:59:22;;;;;;;0.80;0.40;;;22.40;99.90;;;;;;4979061;28;20524;-73
2022/05/07 11:01:51;;;;;;;1.17;1.07;;;22.40;99.90;;;;;;4990161;28;20943;-74
2022/05/07 11:04:22;;;;;;;0.70;0.10;;;22.40;99.90;;;;;;5002947;28;20456;-73
2022/05/07 11:06:51;;;;;;;0.70;0.20;;;22.40;99.90;;;;;;4993930;28;20468;-72
2022/05/07 11:09:24;;;;;;;0.70;0.20;;;22.50;99.90;;;;;;4992295;28;20441;-72
2022/05/07 11:11:54;;;;;;;0.77;0.33;;;22.50;99.90;;;;;;4992432;28;20486;-74
2022/05/07 11:14:26;;;;;;;0.70;0.20;;;22.60;99.90;;;;;;4990557;28;20461;-73
2022/05/07 11:16:55;;;;;;;0.70;0.20;;;22.50;99.90;;;;;;4993090;28;20807;-74
2022/05/07 11:19:26;;;;;;;0.70;0.10;;;22.50;99.90;;;;;;4998002;28;20462;-71
2022/05/07 11:21:54;;;;;;;1.37;0.80;;;22.70;99.90;;;;;;4997386;28;20471;-73
2022/05/07 11:24:22;;;;;;;0.70;0.10;;;22.80;99.90;;;;;;5004205;28;20447;-75
2022/05/07 11:26:52;;;;;;;0.70;0.20;;;22.80;99.90;;;;;;5000812;28;20484;-73
2022/05/07 11:29:20;;;;;;;0.70;0.20;;;22.80;99.90;;;;;;4999116;28;20860;-73
2022/05/07 11:32:00;;;;;;;0.70;0.20;;;22.90;99.90;;;;;;4997915;28;20502;-75
2022/05/07 11:34:37;;;;;;;0.70;0.10;;;23.00;99.90;;;;;;5003712;28;20448;-75
2022/05/07 11:37:12;;;;;;;0.70;0.20;;;23.10;99.90;;;;;;5012597;28;20485;-73
2022/05/07 11:39:51;;;;;;;0.70;0.30;;;23.00;99.90;;;;;;4973625;28;20536;-74
2022/05/07 11:42:35;;;;;;;0.70;0.30;;;23.10;99.90;;;;;;4989201;28;20481;-75
2022/05/07 11:45:29;;;;;;;0.70;0.10;;;23.00;99.90;;;;;;4994639;28;20446;-71
2022/05/07 11:48:02;;;;;;;0.70;0.10;;;22.90;99.90;;;;;;4995442;28;20568;-71
2022/05/07 11:50:32;;;;;;;0.70;0.20;;;22.90;99.90;;;;;;4994398;28;20475;-73
2022/05/07 11:53:10;;;;;;;0.70;0.20;;;23.00;99.90;;;;;;4976482;28;20457;-74
2022/05/07 11:55:39;;;;;;;0.70;0.30;;;23.20;99.90;;;;;;4993154;28;20442;-75
2022/05/07 11:58:16;;;;;;;0.70;0.10;;;23.30;99.90;;;;;;4992480;28;20520;-74
2022/05/07 12:00:45;;;;;;;0.70;0.20;;;23.30;99.90;;;;;;4992565;28;20457;-74
2022/05/07 12:03:19;;;;;;;0.70;0.10;;;23.40;99.90;;;;;;4992438;28;20483;-74
2022/05/07 12:05:50;;;;;;;0.70;0.10;;;23.50;99.90;;;;;;4989709;28;20459;-73
2022/05/07 12:08:22;;;;;;;0.70;0.20;;;;;;;;;;4989996;28;20491;-75
2022/05/07 12:10:53;;;;;;;0.70;0.17;;;23.60;99.90;;;;;;4993172;28;20518;-73
2022/05/07 12:13:23;;;;;;;0.70;0.10;;;23.60;99.90;;;;;;4992378;28;20484;-74
2022/05/07 12:18:47;;;;;;;0.70;0.10;;;23.60;99.90;;;;;;4976150;28;20438;-73
2022/05/07 12:21:15;;;;;;;0.70;0.10;;;;;;;;;;4987195;28;20846;-75
2022/05/07 12:32:02;;;;;;;0.70;0.20;;;23.80;99.90;;;;;;4998839;28;20440;-75
2022/05/07 12:34:35;;;;;;;0.70;0.20;;;23.60;99.90;;;;;;4992022;28;20460;-74
2022/05/07 12:37:04;;;;;;;0.70;0.10;;;23.70;99.90;;;;;;4985960;28;20535;-74
2022/05/07 12:39:32;;;;;;;0.70;0.20;;;23.60;99.90;;;;;;4993255;28;20452;-75
2022/05/07 12:42:05;;;;;;;0.70;0.20;;;23.30;99.90;;;;;;4992727;28;20453;-74
2022/05/07 12:44:33;;;;;;;0.70;0.10;;;23.30;99.90;;;;;;4992247;28;20465;-75
2022/05/07 12:47:05;;;;;;;0.80;0.40;;;23.30;99.90;;;;;;4992499;28;20478;-74
2022/05/07 12:49:34;;;;;;;0.70;0.20;;;23.40;99.90;;;;;;4991554;28;20480;-74
2022/05/07 12:52:03;;;;;;;0.70;0.17;;;23.50;99.90;;;;;;4992931;28;20456;-76
2022/05/07 12:54:31;;;;;;;0.70;0.10;;;23.50;99.90;;;;;;4996985;28;20463;-77
2022/05/07 12:57:06;;;;;;;0.70;0.20;;;23.70;99.90;;;;;;5005464;28;20962;-74
2022/05/07 12:59:36;;;;;;;0.70;0.20;;;23.80;99.90;;;;;;4989560;28;20445;-75
2022/05/07 13:02:08;;;;;;;0.70;0.20;;;23.90;99.90;;;;;;4976609;28;20451;-75
2022/05/07 13:04:38;;;;;;;0.70;0.20;;;24.10;99.90;;;;;;4993385;28;20449;-75
2022/05/07 13:07:06;;;;;;;0.70;0.20;;;24.20;99.90;;;;;;4996185;28;20469;-74
2022/05/07 13:09:34;;;;;;;0.70;0.10;;;24.30;99.90;;;;;;4996608;28;20982;-75
2022/05/07 13:12:20;;;;;;;6.20;0.67;;;24.40;99.90;;;;;;4990042;28;20460;-74
2022/05/07 13:14:55;;;;;;;0.70;0.10;;;24.50;99.90;;;;;;4994246;28;20455;-74
2022/05/07 13:17:23;;;;;;;1.27;0.60;;;24.30;99.90;;;;;;4990279;28;20480;-72
2022/05/07 13:19:53;;;;;;;0.80;0.20;;;24.00;99.90;;;;;;4996022;28;20452;-73
2022/05/07 13:22:21;;;;;;;1.10;0.30;;;23.90;99.90;;;;;;4995668;28;20489;-72
2022/05/07 13:24:48;;;;;;;0.70;0.10;;;23.80;99.90;;;;;;4995643;28;20440;-74
2022/05/07 13:27:16;;;;;;;0.80;0.27;;;23.90;99.90;;;;;;4996242;28;20472;-72
2022/05/07 13:29:44;;;;;;;0.70;0.20;;;23.80;99.90;;;;;;4992285;28;20494;-75
2022/05/07 13:32:12;;;;;;;0.70;0.10;;;23.70;99.90;;;;;;4996477;28;20457;-75
2022/05/07 13:34:41;;;;;;;0.70;0.13;;;23.90;99.90;;;;;;4998413;28;20523;-77
2022/05/07 13:37:11;;;;;;;0.70;0.10;;;24.00;99.90;;;;;;4996857;28;20813;-74
2022/05/07 13:39:39;;;;;;;0.70;0.10;;;24.20;99.90;;;;;;4996563;28;20536;-75
2022/05/07 13:42:10;;;;;;;0.70;0.20;;;24.20;99.90;;;;;;4993963;28;20468;-77